AFR33JQ EHAM-LFPG
Flight info
| Callsign | AFR33JQ |
|---|---|
| Flight time | 0h 53m |
| Altitude | 29000 |
| Route | WOODY N872 DENOX DCT SISGA DCT DELOM DCT MOPIL |
| Aircraft | A320/M-SDE3FGHIRWY/LB1 |
Departure
| Time | 2026-05-08 14:01 |
|---|---|
| Airport | Amsterdam Airport Schiphol (EHAM) |
Arrival
| Time | 2026-05-08 14:54 |
|---|---|
| Airport | Charles de Gaulle International Airport (LFPG) |
| Time | Latitude | Longitude | Altitude | Speed | Heading |
|---|---|---|---|---|---|
| 2026-05-08 13:19 | 52.30626 | 4.76636 | -1 ft | 0 kts | 238° |
| 2026-05-08 13:46 | 52.30628 | 4.76642 | -1 ft | 3 kts | 238° |
| 2026-05-08 13:46 | 52.30642 | 4.76679 | -1 ft | 4 kts | 238° |
| 2026-05-08 13:46 | 52.30657 | 4.76717 | -1 ft | 4 kts | 238° |
| 2026-05-08 13:46 | 52.30671 | 4.76754 | -1 ft | 3 kts | 238° |
| 2026-05-08 13:47 | 52.30674 | 4.76761 | -1 ft | 0 kts | 238° |
| 2026-05-08 13:48 | 52.30665 | 4.76766 | -1 ft | 0 kts | 156° |
| 2026-05-08 13:49 | 52.30661 | 4.76769 | -1 ft | 3 kts | 156° |
| 2026-05-08 13:50 | 52.30622 | 4.76799 | -1 ft | 10 kts | 149° |
| 2026-05-08 13:50 | 52.30574 | 4.76904 | -1 ft | 12 kts | 135° |
| 2026-05-08 13:50 | 52.30502 | 4.76972 | -1 ft | 13 kts | 154° |
| 2026-05-08 13:50 | 52.30433 | 4.76883 | -1 ft | 15 kts | 238° |
| 2026-05-08 13:51 | 52.30374 | 4.76723 | -1 ft | 17 kts | 237° |
| 2026-05-08 13:51 | 52.30312 | 4.76562 | -1 ft | 13 kts | 236° |
| 2026-05-08 13:51 | 52.30304 | 4.76544 | -1 ft | 0 kts | 236° |
| 2026-05-08 13:51 | 52.30302 | 4.76538 | -1 ft | 3 kts | 236° |
| 2026-05-08 13:52 | 52.30270 | 4.76459 | -1 ft | 13 kts | 238° |
| 2026-05-08 13:52 | 52.30209 | 4.76299 | -1 ft | 18 kts | 238° |
| 2026-05-08 13:52 | 52.30147 | 4.76136 | -1 ft | 16 kts | 238° |
| 2026-05-08 13:52 | 52.30092 | 4.75992 | -1 ft | 14 kts | 238° |
| 2026-05-08 13:53 | 52.30035 | 4.75842 | -1 ft | 17 kts | 238° |
| 2026-05-08 13:53 | 52.29963 | 4.75653 | -1 ft | 22 kts | 238° |
| 2026-05-08 13:53 | 52.29878 | 4.75431 | -1 ft | 23 kts | 235° |
| 2026-05-08 13:53 | 52.29835 | 4.75228 | -1 ft | 12 kts | 288° |
| 2026-05-08 13:54 | 52.29859 | 4.75161 | -1 ft | 7 kts | 305° |
| 2026-05-08 13:54 | 52.29929 | 4.75031 | -1 ft | 20 kts | 311° |
| 2026-05-08 13:54 | 52.30026 | 4.74853 | -1 ft | 22 kts | 311° |
| 2026-05-08 13:54 | 52.30114 | 4.74693 | 6 ft | 16 kts | 311° |
| 2026-05-08 13:55 | 52.30172 | 4.74582 | 10 ft | 11 kts | 311° |
| 2026-05-08 13:55 | 52.30221 | 4.74492 | 10 ft | 10 kts | 311° |
| 2026-05-08 13:55 | 52.30329 | 4.74276 | -2 ft | 24 kts | 294° |
| 2026-05-08 13:56 | 52.30350 | 4.74082 | -1 ft | 15 kts | 237° |
| 2026-05-08 13:56 | 52.30298 | 4.74008 | -1 ft | 0 kts | 216° |
| 2026-05-08 13:56 | 52.30296 | 4.74004 | -1 ft | 4 kts | 216° |
| 2026-05-08 13:57 | 52.30254 | 4.73957 | -1 ft | 8 kts | 214° |
| 2026-05-08 13:57 | 52.30224 | 4.73920 | -1 ft | 0 kts | 217° |
| 2026-05-08 13:58 | 52.30215 | 4.73909 | -1 ft | 8 kts | 217° |
| 2026-05-08 13:58 | 52.30187 | 4.73810 | -2 ft | 10 kts | 278° |
| 2026-05-08 13:58 | 52.30235 | 4.73741 | -3 ft | 10 kts | 351° |
| 2026-05-08 13:58 | 52.30260 | 4.73743 | -4 ft | 0 kts | 3° |
| 2026-05-08 14:00 | 52.30354 | 4.73751 | -4 ft | 46 kts | 3° |
| 2026-05-08 14:00 | 52.30916 | 4.73803 | -1 ft | 113 kts | 3° |
| 2026-05-08 14:01 | 52.31892 | 4.73891 | 15 ft | 163 kts | 5° |
| 2026-05-08 14:01 | 52.33022 | 4.74009 | 635 ft | 163 kts | 5° |
| 2026-05-08 14:01 | 52.34134 | 4.74359 | 1316 ft | 165 kts | 20° |
| 2026-05-08 14:01 | 52.35283 | 4.75097 | 1651 ft | 189 kts | 23° |
| 2026-05-08 14:02 | 52.36544 | 4.76013 | 2031 ft | 208 kts | 32° |
| 2026-05-08 14:02 | 52.37463 | 4.77889 | 2456 ft | 224 kts | 75° |
| 2026-05-08 14:02 | 52.37397 | 4.80417 | 3230 ft | 227 kts | 107° |
| 2026-05-08 14:02 | 52.36674 | 4.82690 | 4024 ft | 231 kts | 128° |
| 2026-05-08 14:03 | 52.35459 | 4.84413 | 4819 ft | 238 kts | 151° |
| 2026-05-08 14:03 | 52.33775 | 4.85089 | 5249 ft | 259 kts | 182° |
| 2026-05-08 14:03 | 52.31932 | 4.84897 | 5864 ft | 271 kts | 182° |
| 2026-05-08 14:03 | 52.30062 | 4.84782 | 6079 ft | 268 kts | 181° |
| 2026-05-08 14:04 | 52.28248 | 4.84720 | 6080 ft | 269 kts | 181° |
| 2026-05-08 14:04 | 52.26384 | 4.84687 | 6077 ft | 267 kts | 180° |
| 2026-05-08 14:04 | 52.24543 | 4.84678 | 6521 ft | 263 kts | 180° |
| 2026-05-08 14:04 | 52.22697 | 4.84646 | 7229 ft | 271 kts | 180° |
| 2026-05-08 14:05 | 52.20785 | 4.84633 | 8029 ft | 276 kts | 180° |
| 2026-05-08 14:05 | 52.18853 | 4.84619 | 8877 ft | 279 kts | 180° |
| 2026-05-08 14:05 | 52.16905 | 4.84601 | 9745 ft | 281 kts | 181° |
| 2026-05-08 14:05 | 52.14945 | 4.84582 | 10561 ft | 282 kts | 181° |
| 2026-05-08 14:06 | 52.12936 | 4.84552 | 10990 ft | 300 kts | 181° |
| 2026-05-08 14:06 | 52.10806 | 4.84496 | 11273 ft | 320 kts | 182° |
| 2026-05-08 14:06 | 52.08513 | 4.84419 | 11862 ft | 328 kts | 182° |
| 2026-05-08 14:06 | 52.06216 | 4.84359 | 12569 ft | 332 kts | 181° |
| 2026-05-08 14:07 | 52.03892 | 4.84307 | 13263 ft | 337 kts | 182° |
| 2026-05-08 14:07 | 52.01571 | 4.83736 | 13915 ft | 341 kts | 197° |
| 2026-05-08 14:07 | 51.99373 | 4.82218 | 14543 ft | 344 kts | 209° |
| 2026-05-08 14:07 | 51.97248 | 4.80390 | 15190 ft | 347 kts | 207° |
| 2026-05-08 14:08 | 51.95078 | 4.78648 | 15887 ft | 349 kts | 206° |
| 2026-05-08 14:08 | 51.92911 | 4.76986 | 16544 ft | 351 kts | 205° |
| 2026-05-08 14:08 | 51.90687 | 4.75306 | 17211 ft | 354 kts | 205° |
| 2026-05-08 14:08 | 51.88444 | 4.73627 | 17875 ft | 356 kts | 205° |
| 2026-05-08 14:09 | 51.86191 | 4.71956 | 18537 ft | 357 kts | 205° |
| 2026-05-08 14:09 | 51.83932 | 4.70244 | 19076 ft | 361 kts | 206° |
| 2026-05-08 14:09 | 51.81659 | 4.68455 | 19550 ft | 366 kts | 206° |
| 2026-05-08 14:09 | 51.79366 | 4.66628 | 20070 ft | 369 kts | 206° |
| 2026-05-08 14:10 | 51.77053 | 4.64791 | 20599 ft | 372 kts | 206° |
| 2026-05-08 14:10 | 51.74714 | 4.62950 | 21125 ft | 375 kts | 206° |
| 2026-05-08 14:10 | 51.72355 | 4.61106 | 21670 ft | 378 kts | 206° |
| 2026-05-08 14:10 | 51.69973 | 4.59254 | 22195 ft | 381 kts | 206° |
| 2026-05-08 14:11 | 51.67569 | 4.57394 | 22725 ft | 385 kts | 206° |
| 2026-05-08 14:11 | 51.65151 | 4.55528 | 23252 ft | 388 kts | 206° |
| 2026-05-08 14:11 | 51.62711 | 4.53649 | 23742 ft | 391 kts | 206° |
| 2026-05-08 14:11 | 51.60246 | 4.51752 | 24158 ft | 393 kts | 206° |
| 2026-05-08 14:12 | 51.57801 | 4.49871 | 24571 ft | 396 kts | 206° |
| 2026-05-08 14:12 | 51.55272 | 4.47925 | 24980 ft | 399 kts | 206° |
| 2026-05-08 14:12 | 51.52801 | 4.46025 | 25366 ft | 401 kts | 206° |
| 2026-05-08 14:12 | 51.50276 | 4.44090 | 25766 ft | 403 kts | 206° |
| 2026-05-08 14:13 | 51.47732 | 4.42145 | 26048 ft | 405 kts | 206° |
| 2026-05-08 14:13 | 51.45189 | 4.40198 | 26111 ft | 405 kts | 206° |
| 2026-05-08 14:13 | 51.42649 | 4.38250 | 26112 ft | 405 kts | 206° |
| 2026-05-08 14:13 | 51.40109 | 4.36309 | 26111 ft | 404 kts | 206° |
| 2026-05-08 14:14 | 51.37574 | 4.34377 | 26110 ft | 404 kts | 206° |
| 2026-05-08 14:14 | 51.35032 | 4.32445 | 26111 ft | 404 kts | 206° |
| 2026-05-08 14:14 | 51.32492 | 4.30517 | 26107 ft | 404 kts | 206° |
| 2026-05-08 14:14 | 51.29949 | 4.28587 | 26108 ft | 404 kts | 206° |
| 2026-05-08 14:15 | 51.27405 | 4.26656 | 26108 ft | 405 kts | 206° |
| 2026-05-08 14:15 | 51.24864 | 4.24729 | 26105 ft | 404 kts | 206° |
| 2026-05-08 14:15 | 51.22356 | 4.22833 | 26109 ft | 404 kts | 206° |
| 2026-05-08 14:15 | 51.19814 | 4.20912 | 26108 ft | 404 kts | 206° |
| 2026-05-08 14:16 | 51.17272 | 4.18994 | 26108 ft | 404 kts | 205° |
| 2026-05-08 14:16 | 51.14651 | 4.17376 | 26106 ft | 405 kts | 200° |
| 2026-05-08 14:16 | 51.11986 | 4.15910 | 26106 ft | 405 kts | 200° |
| 2026-05-08 14:16 | 51.09321 | 4.14450 | 26105 ft | 405 kts | 200° |
| 2026-05-08 14:17 | 51.06656 | 4.12993 | 26102 ft | 405 kts | 200° |
| 2026-05-08 14:17 | 51.03994 | 4.11543 | 26100 ft | 405 kts | 200° |
| 2026-05-08 14:17 | 51.01327 | 4.10092 | 26101 ft | 405 kts | 200° |
| 2026-05-08 14:17 | 50.98660 | 4.08638 | 26100 ft | 405 kts | 200° |
| 2026-05-08 14:18 | 50.95992 | 4.07180 | 26100 ft | 405 kts | 200° |
| 2026-05-08 14:18 | 50.93326 | 4.05726 | 26100 ft | 405 kts | 200° |
| 2026-05-08 14:18 | 50.90664 | 4.04286 | 26100 ft | 405 kts | 198° |
| 2026-05-08 14:18 | 50.87910 | 4.03318 | 26099 ft | 406 kts | 188° |
| 2026-05-08 14:19 | 50.85090 | 4.03105 | 26095 ft | 407 kts | 179° |
| 2026-05-08 14:19 | 50.82259 | 4.03418 | 26097 ft | 408 kts | 177° |
| 2026-05-08 14:19 | 50.79465 | 4.03738 | 26097 ft | 408 kts | 177° |
| 2026-05-08 14:19 | 50.76634 | 4.04049 | 26096 ft | 408 kts | 178° |
| 2026-05-08 14:20 | 50.73810 | 4.04356 | 26097 ft | 407 kts | 178° |
| 2026-05-08 14:20 | 50.70980 | 4.04665 | 26116 ft | 409 kts | 178° |
| 2026-05-08 14:20 | 50.68133 | 4.04978 | 26510 ft | 411 kts | 177° |
| 2026-05-08 14:20 | 50.65269 | 4.05292 | 26898 ft | 413 kts | 177° |
| 2026-05-08 14:21 | 50.62395 | 4.05605 | 27266 ft | 416 kts | 177° |
| 2026-05-08 14:21 | 50.59500 | 4.05920 | 27630 ft | 418 kts | 177° |
| 2026-05-08 14:21 | 50.56591 | 4.06237 | 27979 ft | 420 kts | 177° |
| 2026-05-08 14:21 | 50.53666 | 4.06556 | 28328 ft | 422 kts | 177° |
| 2026-05-08 14:22 | 50.50723 | 4.06879 | 28672 ft | 425 kts | 177° |
| 2026-05-08 14:22 | 50.47773 | 4.07204 | 28997 ft | 427 kts | 177° |
| 2026-05-08 14:22 | 50.44817 | 4.07531 | 29088 ft | 421 kts | 177° |
| 2026-05-08 14:22 | 50.41950 | 4.07848 | 29091 ft | 406 kts | 178° |
| 2026-05-08 14:23 | 50.39148 | 4.08152 | 29095 ft | 402 kts | 178° |
| 2026-05-08 14:23 | 50.33626 | 4.08746 | 29096 ft | 399 kts | 178° |
| 2026-05-08 14:23 | 50.30841 | 4.09041 | 28724 ft | 394 kts | 178° |
| 2026-05-08 14:24 | 50.28124 | 4.09330 | 28265 ft | 389 kts | 178° |
| 2026-05-08 14:24 | 50.25472 | 4.09619 | 27847 ft | 385 kts | 178° |
| 2026-05-08 14:24 | 50.22810 | 4.09913 | 27412 ft | 381 kts | 178° |
| 2026-05-08 14:24 | 50.20181 | 4.10203 | 26984 ft | 377 kts | 178° |
| 2026-05-08 14:25 | 50.17572 | 4.10488 | 26545 ft | 374 kts | 178° |
| 2026-05-08 14:25 | 50.14988 | 4.10747 | 26103 ft | 371 kts | 180° |
| 2026-05-08 14:25 | 50.12434 | 4.10605 | 25793 ft | 364 kts | 185° |
| 2026-05-08 14:25 | 50.09912 | 4.10402 | 25515 ft | 361 kts | 184° |
| 2026-05-08 14:26 | 50.07407 | 4.10214 | 25228 ft | 359 kts | 184° |
| 2026-05-08 14:26 | 50.04915 | 4.10036 | 24947 ft | 358 kts | 184° |
| 2026-05-08 14:26 | 50.02435 | 4.09861 | 24653 ft | 356 kts | 184° |
| 2026-05-08 14:26 | 49.99963 | 4.09683 | 24374 ft | 355 kts | 184° |
| 2026-05-08 14:27 | 49.97503 | 4.09501 | 24087 ft | 353 kts | 184° |
| 2026-05-08 14:27 | 49.95087 | 4.09321 | 23811 ft | 351 kts | 184° |
| 2026-05-08 14:27 | 49.92654 | 4.09139 | 23513 ft | 350 kts | 184° |
| 2026-05-08 14:27 | 49.90227 | 4.08958 | 23221 ft | 348 kts | 184° |
| 2026-05-08 14:28 | 49.87811 | 4.08780 | 22940 ft | 347 kts | 184° |
| 2026-05-08 14:28 | 49.85406 | 4.08602 | 22667 ft | 345 kts | 184° |
| 2026-05-08 14:28 | 49.83012 | 4.08422 | 22394 ft | 344 kts | 184° |
| 2026-05-08 14:28 | 49.80629 | 4.08248 | 22115 ft | 342 kts | 184° |
| 2026-05-08 14:29 | 49.78256 | 4.08076 | 21840 ft | 341 kts | 184° |
| 2026-05-08 14:29 | 49.75893 | 4.07906 | 21569 ft | 339 kts | 184° |
| 2026-05-08 14:29 | 49.73541 | 4.07740 | 21301 ft | 338 kts | 184° |
| 2026-05-08 14:29 | 49.71203 | 4.07573 | 21027 ft | 336 kts | 184° |
| 2026-05-08 14:30 | 49.68906 | 4.07405 | 20766 ft | 335 kts | 184° |
| 2026-05-08 14:30 | 49.66548 | 4.07231 | 20494 ft | 333 kts | 185° |
| 2026-05-08 14:30 | 49.64234 | 4.07058 | 20231 ft | 332 kts | 186° |
| 2026-05-08 14:30 | 49.62011 | 4.06455 | 19964 ft | 327 kts | 199° |
| 2026-05-08 14:31 | 49.59956 | 4.05004 | 19706 ft | 324 kts | 214° |
| 2026-05-08 14:31 | 49.58200 | 4.02794 | 19445 ft | 322 kts | 228° |
| 2026-05-08 14:31 | 49.56881 | 4.00086 | 19193 ft | 320 kts | 237° |
| 2026-05-08 14:32 | 49.54469 | 3.94334 | 18674 ft | 318 kts | 237° |
| 2026-05-08 14:32 | 49.53264 | 3.91482 | 18418 ft | 317 kts | 237° |
| 2026-05-08 14:32 | 49.52064 | 3.88639 | 18143 ft | 316 kts | 237° |
| 2026-05-08 14:32 | 49.50867 | 3.85809 | 17881 ft | 315 kts | 237° |
| 2026-05-08 14:33 | 49.49669 | 3.82989 | 17627 ft | 314 kts | 237° |
| 2026-05-08 14:33 | 49.48476 | 3.80182 | 17376 ft | 313 kts | 237° |
| 2026-05-08 14:33 | 49.47450 | 3.77242 | 17126 ft | 312 kts | 248° |
| 2026-05-08 14:33 | 49.46833 | 3.74057 | 16878 ft | 312 kts | 255° |
| 2026-05-08 14:34 | 49.46297 | 3.70833 | 16627 ft | 310 kts | 255° |
| 2026-05-08 14:34 | 49.45759 | 3.67629 | 16377 ft | 309 kts | 255° |
| 2026-05-08 14:34 | 49.45220 | 3.64438 | 16140 ft | 308 kts | 254° |
| 2026-05-08 14:34 | 49.44680 | 3.61262 | 15960 ft | 307 kts | 254° |
| 2026-05-08 14:35 | 49.44141 | 3.58089 | 15869 ft | 307 kts | 254° |
| 2026-05-08 14:35 | 49.43603 | 3.54917 | 15749 ft | 307 kts | 254° |
| 2026-05-08 14:35 | 49.43069 | 3.51782 | 15640 ft | 307 kts | 254° |
| 2026-05-08 14:35 | 49.42529 | 3.48609 | 15529 ft | 307 kts | 254° |
| 2026-05-08 14:36 | 49.41975 | 3.45446 | 15412 ft | 306 kts | 251° |
| 2026-05-08 14:36 | 49.41213 | 3.42400 | 15300 ft | 306 kts | 247° |
| 2026-05-08 14:36 | 49.40402 | 3.39382 | 15184 ft | 305 kts | 247° |
| 2026-05-08 14:36 | 49.39593 | 3.36368 | 15053 ft | 305 kts | 247° |
| 2026-05-08 14:37 | 49.38786 | 3.33368 | 14943 ft | 305 kts | 247° |
| 2026-05-08 14:37 | 49.37980 | 3.30364 | 14836 ft | 304 kts | 247° |
| 2026-05-08 14:37 | 49.37177 | 3.27363 | 14716 ft | 304 kts | 247° |
| 2026-05-08 14:37 | 49.36375 | 3.24373 | 14602 ft | 303 kts | 247° |
| 2026-05-08 14:38 | 49.35572 | 3.21385 | 14496 ft | 303 kts | 247° |
| 2026-05-08 14:38 | 49.34769 | 3.18401 | 14376 ft | 302 kts | 246° |
| 2026-05-08 14:38 | 49.33965 | 3.15422 | 14263 ft | 302 kts | 246° |
| 2026-05-08 14:38 | 49.33160 | 3.12448 | 14152 ft | 302 kts | 246° |
| 2026-05-08 14:39 | 49.32369 | 3.09516 | 14030 ft | 302 kts | 247° |
| 2026-05-08 14:39 | 49.31570 | 3.06546 | 13930 ft | 302 kts | 247° |
| 2026-05-08 14:39 | 49.30770 | 3.03577 | 13808 ft | 301 kts | 247° |
| 2026-05-08 14:39 | 49.29968 | 3.00620 | 13687 ft | 301 kts | 247° |
| 2026-05-08 14:40 | 49.29164 | 2.97662 | 13578 ft | 300 kts | 247° |
| 2026-05-08 14:40 | 49.28362 | 2.94711 | 13466 ft | 300 kts | 246° |
| 2026-05-08 14:40 | 49.27831 | 2.92769 | 13388 ft | 299 kts | 246° |
| 2026-05-08 14:40 | 49.27028 | 2.89832 | 13276 ft | 299 kts | 246° |
| 2026-05-08 14:41 | 49.26226 | 2.86899 | 13168 ft | 296 kts | 246° |
| 2026-05-08 14:41 | 49.25435 | 2.84003 | 13055 ft | 295 kts | 246° |
| 2026-05-08 14:41 | 49.24642 | 2.81109 | 12939 ft | 294 kts | 246° |
| 2026-05-08 14:41 | 49.23853 | 2.78229 | 12835 ft | 294 kts | 246° |
| 2026-05-08 14:42 | 49.23062 | 2.75348 | 12727 ft | 293 kts | 246° |
| 2026-05-08 14:42 | 49.22272 | 2.72478 | 12613 ft | 293 kts | 246° |
| 2026-05-08 14:42 | 49.21483 | 2.69609 | 12514 ft | 292 kts | 246° |
| 2026-05-08 14:42 | 49.20693 | 2.66747 | 12404 ft | 292 kts | 246° |
| 2026-05-08 14:43 | 49.19900 | 2.63890 | 12299 ft | 292 kts | 246° |
| 2026-05-08 14:43 | 49.19107 | 2.61027 | 12185 ft | 292 kts | 246° |
| 2026-05-08 14:43 | 49.18370 | 2.58133 | 12080 ft | 292 kts | 254° |
| 2026-05-08 14:43 | 49.18042 | 2.55086 | 11822 ft | 292 kts | 267° |
| 2026-05-08 14:44 | 49.17986 | 2.51993 | 11482 ft | 289 kts | 267° |
| 2026-05-08 14:44 | 49.17926 | 2.48936 | 11173 ft | 287 kts | 267° |
| 2026-05-08 14:44 | 49.17860 | 2.45899 | 10862 ft | 286 kts | 267° |
| 2026-05-08 14:44 | 49.17791 | 2.42913 | 10554 ft | 284 kts | 267° |
| 2026-05-08 14:45 | 49.17723 | 2.39899 | 10244 ft | 283 kts | 267° |
| 2026-05-08 14:45 | 49.17654 | 2.36907 | 9931 ft | 282 kts | 266° |
| 2026-05-08 14:45 | 49.17521 | 2.33926 | 9563 ft | 279 kts | 264° |
| 2026-05-08 14:45 | 49.17335 | 2.30983 | 9233 ft | 278 kts | 264° |
| 2026-05-08 14:46 | 49.17127 | 2.28043 | 8905 ft | 277 kts | 263° |
| 2026-05-08 14:46 | 49.16917 | 2.25117 | 8580 ft | 278 kts | 263° |
| 2026-05-08 14:46 | 49.16712 | 2.22181 | 8252 ft | 278 kts | 263° |
| 2026-05-08 14:46 | 49.16513 | 2.19272 | 7928 ft | 273 kts | 264° |
| 2026-05-08 14:47 | 49.16156 | 2.16457 | 7608 ft | 268 kts | 246° |
| 2026-05-08 14:47 | 49.15073 | 2.14211 | 7298 ft | 262 kts | 218° |
| 2026-05-08 14:47 | 49.13459 | 2.13031 | 6990 ft | 257 kts | 190° |
| 2026-05-08 14:47 | 49.11704 | 2.13114 | 6678 ft | 252 kts | 166° |
| 2026-05-08 14:48 | 49.10015 | 2.13778 | 6379 ft | 249 kts | 165° |
| 2026-05-08 14:48 | 49.08353 | 2.14443 | 6063 ft | 245 kts | 165° |
| 2026-05-08 14:48 | 49.06718 | 2.15097 | 5767 ft | 241 kts | 164° |
| 2026-05-08 14:48 | 49.05108 | 2.15735 | 5466 ft | 237 kts | 164° |
| 2026-05-08 14:49 | 49.03538 | 2.16354 | 5168 ft | 235 kts | 164° |
| 2026-05-08 14:49 | 49.01967 | 2.17082 | 4878 ft | 231 kts | 150° |
| 2026-05-08 14:49 | 49.00897 | 2.18765 | 4594 ft | 220 kts | 110° |
| 2026-05-08 14:49 | 49.00704 | 2.21023 | 4383 ft | 218 kts | 86° |
| 2026-05-08 14:50 | 49.00840 | 2.23344 | 4115 ft | 220 kts | 83° |
| 2026-05-08 14:50 | 49.00984 | 2.25654 | 3836 ft | 218 kts | 84° |
| 2026-05-08 14:50 | 49.01116 | 2.27941 | 3544 ft | 216 kts | 84° |
| 2026-05-08 14:50 | 49.01243 | 2.30198 | 3264 ft | 211 kts | 84° |
| 2026-05-08 14:51 | 49.01363 | 2.32337 | 2983 ft | 199 kts | 84° |
| 2026-05-08 14:51 | 49.01479 | 2.34414 | 2744 ft | 193 kts | 84° |
| 2026-05-08 14:51 | 49.01588 | 2.36389 | 2492 ft | 182 kts | 84° |
| 2026-05-08 14:51 | 49.01691 | 2.38248 | 2236 ft | 171 kts | 84° |
| 2026-05-08 14:52 | 49.01788 | 2.39997 | 2018 ft | 160 kts | 84° |
| 2026-05-08 14:52 | 49.01958 | 2.43092 | 1624 ft | 139 kts | 85° |
| 2026-05-08 14:52 | 49.02038 | 2.44554 | 1438 ft | 138 kts | 85° |
| 2026-05-08 14:53 | 49.02116 | 2.46002 | 1261 ft | 137 kts | 85° |
| 2026-05-08 14:53 | 49.02196 | 2.47460 | 1109 ft | 137 kts | 84° |
| 2026-05-08 14:53 | 49.02271 | 2.48908 | 906 ft | 137 kts | 84° |
| 2026-05-08 14:53 | 49.02347 | 2.50334 | 709 ft | 134 kts | 85° |
| 2026-05-08 14:54 | 49.02432 | 2.51750 | 484 ft | 135 kts | 84° |
| 2026-05-08 14:54 | 49.02510 | 2.53152 | 361 ft | 124 kts | 85° |
| 2026-05-08 14:54 | 49.02565 | 2.54200 | 354 ft | 74 kts | 85° |
| 2026-05-08 14:54 | 49.02595 | 2.54741 | 360 ft | 37 kts | 85° |
| 2026-05-08 14:55 | 49.02610 | 2.55108 | 355 ft | 32 kts | 95° |
| 2026-05-08 14:55 | 49.02534 | 2.55405 | 355 ft | 30 kts | 117° |
| 2026-05-08 14:55 | 49.02421 | 2.55615 | 359 ft | 25 kts | 181° |
| 2026-05-08 14:55 | 49.02243 | 2.55634 | 354 ft | 26 kts | 175° |
| 2026-05-08 14:56 | 49.02058 | 2.55655 | 360 ft | 26 kts | 176° |
| 2026-05-08 14:56 | 49.01919 | 2.55688 | 355 ft | 17 kts | 140° |
| 2026-05-08 14:56 | 49.01903 | 2.55867 | 359 ft | 18 kts | 86° |
| 2026-05-08 14:56 | 49.01913 | 2.56064 | 354 ft | 19 kts | 87° |
| 2026-05-08 14:57 | 49.01925 | 2.56271 | 354 ft | 20 kts | 84° |
| 2026-05-08 14:57 | 49.01936 | 2.56488 | 358 ft | 21 kts | 86° |
| 2026-05-08 14:57 | 49.01948 | 2.56709 | 359 ft | 22 kts | 84° |
| 2026-05-08 14:57 | 49.01962 | 2.56942 | 359 ft | 22 kts | 85° |
| 2026-05-08 14:58 | 49.01975 | 2.57176 | 361 ft | 22 kts | 85° |
| 2026-05-08 14:58 | 49.01985 | 2.57417 | 354 ft | 24 kts | 86° |
| 2026-05-08 14:58 | 49.01999 | 2.57656 | 354 ft | 22 kts | 86° |
| 2026-05-08 14:58 | 49.01960 | 2.57872 | 358 ft | 22 kts | 128° |
| 2026-05-08 14:59 | 49.01829 | 2.57986 | 357 ft | 23 kts | 175° |
| 2026-05-08 14:59 | 49.01484 | 2.58030 | 354 ft | 26 kts | 175° |
| 2026-05-08 14:59 | 49.01302 | 2.58053 | 357 ft | 26 kts | 175° |
| 2026-05-08 15:00 | 49.01120 | 2.58075 | 354 ft | 24 kts | 176° |
| 2026-05-08 15:00 | 49.00960 | 2.58094 | 358 ft | 22 kts | 174° |
| 2026-05-08 15:00 | 49.00827 | 2.58116 | 357 ft | 16 kts | 173° |
| 2026-05-08 15:00 | 49.00737 | 2.58130 | 361 ft | 11 kts | 176° |
| 2026-05-08 15:01 | 49.00667 | 2.58134 | 354 ft | 9 kts | 188° |
| 2026-05-08 15:01 | 49.00653 | 2.58065 | 354 ft | 6 kts | 269° |
| 2026-05-08 15:01 | 49.00652 | 2.58015 | 354 ft | 2 kts | 268° |
| 2026-05-08 15:01 | 49.00652 | 2.58011 | 354 ft | 0 kts | 268° |